Powers, Oregon
Current Conditions -  °F | °C
As of 1:55 AM on Friday 31 Oct 2014 (Local Time) from KOTH Reporting Station
Overcast Overcast  
Wind Chill: 54°   Ceiling: 2400
Heat Index: 54°   Visibility: 7mi
Dew Point: 54°   Wind: 10mph
Humidity: 100%   Direction: 300°WNW
Pressure: 29.78"   Gusts: NA
Location:  42.88°N, 124.07°W
Report Text: KOTH 310855Z 30009KT 7SM SCT009 BKN024 OVC044 12/12 A2978 RMK AO1 P0006 60017 57003
Loading
Personal Weather Stations






























Interactive Weather Map
Tropical Storm Tracking
New forecast layout! Learn more

10-Day Weather Forecast

Advertisements
Track Severe Weather on mobile